CheckWX is a tool to help pilots better visualize weather data.  It is not intended as a substitute for an official pre-flight weather briefing.

11:09:54 UTC

KLSE METAR
La Crosse Regional Airport
La Crosse, Wisconsin, USA
Current

17 mins ago

KLSE 161053Z 13004KT 10SM CLR 21/19 A2986 RMK AO2 SLP100 T02110194
Observed
Jul-16 @ 10:53 UTC
Wind
  • 130° at 4 KTS
Visibility
10 SM
Flight Rules
VFR
Cloud Levels
  • Clear skies
Temperature
21°C / 70°F
Dewpoint
19°C / 66°F
Humidity
88%
Altimeter
29.86" Hg
Pressure
1011.22 hPa
Previous

1 hour ago

KLSE 160953Z AUTO 00000KT 10SM CLR 21/19 A2985 RMK AO2 SLP097 T02110194
Observed
Jul-16 @ 09:53 UTC
Visibility
10 SM
Flight Rules
VFR
Cloud Levels
  • Clear skies
Temperature
21°C / 70°F
Dewpoint
19°C / 66°F
Humidity
88%
Altimeter
29.85" Hg
Pressure
1010.82 hPa
Previous

2 hours ago

KLSE 160853Z AUTO 14003KT 10SM CLR 21/19 A2985 RMK AO2 RAE00 SLP095 P0000 60002 T02110194 58005
Observed
Jul-16 @ 08:53 UTC
Wind
  • 140° at 3 KTS
Visibility
10 SM
Flight Rules
VFR
Cloud Levels
  • Clear skies
Temperature
21°C / 70°F
Dewpoint
19°C / 66°F
Humidity
88%
Altimeter
29.85" Hg
Pressure
1010.82 hPa
Current Rain
0.01"